Estación municipal de Queralbs (Ripollès, P.N.de les capçaleres del Ter i el Freser)

Consulta los datos en tiempo real de la estación municipal de Queralbs





Hora UTC 06:00
Temperatura 7.8 ºC
Humedad 97.7 %
Pluja 0.0 mm
Velocidad viento 0.0 km/h
Dirección viento NNE

Datos diarios 2026-05-04



Hora UTC (invierno +1h; verano +2h)
Temperatura (ºC) Humedad (%) Velocidad viento (km/h) Precipitación (mm)
Hora UTC Aire Humedad Vel. Dir. Vel. Max Dir. Intent. máx 5 min.
00:05 8.5 97.3 0.4 NNE 0.4 NNE 0.0
00:10 8.5 97.4 1.2 SSE 2.8 S 0.0
00:15 8.5 97.4 1.6 SW 5.3 SW 0.0
00:20 8.5 97.3 2.3 WNW 5.3 SW 0.0
00:25 8.4 97.3 0.0 NNW 1.4 NNW 0.0
00:30 8.4 97.3 0.0 NNE 0.0 NNW 0.0
00:35 8.4 97.3 0.0 NNE 0.0 NNE 0.0
00:40 8.3 97.2 0.0 NNE 0.0 NW 0.0
00:45 8.3 97.2 0.6 S 3.9 S 0.0
00:50 8.3 97.4 0.8 SSW 4.2 S 0.0
00:55 8.4 97.5 0.0 NNE 0.0 W 0.0
01:00 8.4 97.5 1.4 NNE 2.5 N 0.0
01:05 8.4 97.4 0.3 N 1.4 N 0.0
01:10 8.4 97.4 0.0 NNE 0.0 N 0.0
01:15 8.4 97.4 1.8 SW 4.2 SW 0.0
01:20 8.4 97.4 1.4 SW 3.5 SW 0.0
01:25 8.4 97.4 0.0 NNE 0.0 WSW 0.0
01:30 8.4 97.4 0.6 NNE 1.8 NNE 0.0
01:35 8.5 97.5 0.4 N 1.8 N 0.0
01:40 8.5 97.4 2.2 N 3.2 N 0.0
01:45 8.5 97.4 1.4 N 3.5 N 0.0
01:50 8.5 97.4 0.0 NNE 0.0 N 0.0
01:55 8.4 97.3 0.4 W 1.8 SW 0.0
02:00 8.4 97.3 1.9 W 2.8 WSW 0.0
02:05 8.3 97.3 2.4 WSW 3.2 WSW 0.0
02:10 8.3 97.3 1.4 W 3.2 WSW 0.0
02:15 8.3 97.2 1.7 N 3.5 N 0.0
02:20 8.2 97.1 0.2 ENE 2.1 ENE 0.0
02:25 8.1 97.2 0.4 NNW 1.4 NW 0.0
02:30 8.1 97.4 0.4 NNW 1.8 NNW 0.0
02:35 8.1 97.4 0.0 NNE 0.0 N 0.0
02:40 8.1 97.3 0.0 NNE 0.0 E 0.0
02:45 8.1 97.4 1.3 SW 3.2 SSW 0.0
02:50 8.1 97.5 0.6 NNW 2.1 WNW 0.0
02:55 8.1 97.4 2.7 N 5.3 N 0.0
03:00 8.1 97.3 0.8 NE 3.5 NNE 0.0
03:05 8.1 97.4 1.4 N 3.2 N 0.0
03:10 8.1 97.4 1.8 N 2.8 N 0.0
03:15 8.0 97.3 0.3 NE 1.8 ENE 0.0
03:20 7.9 97.2 0.3 SSE 2.1 S 0.0
03:25 7.9 97.3 1.0 W 3.5 W 0.0
03:30 7.8 97.3 3.3 WSW 5.3 SW 0.0
03:35 7.7 97.2 1.1 WSW 2.5 W 0.0
03:40 7.5 97.1 0.2 SW 1.8 SSW 0.0
03:45 7.4 97.1 1.4 NW 2.5 WNW 0.0
03:50 7.3 97.2 0.9 WNW 2.5 WNW 0.0
03:55 7.3 97.3 0.8 S 2.8 S 0.0
04:00 7.3 97.4 1.6 NNW 3.9 N 0.0
04:05 7.3 97.5 1.5 NNW 3.2 NNW 0.0
04:10 7.3 97.5 1.0 NNW 2.8 NNW 0.0
04:15 7.4 97.6 1.0 NW 3.2 WNW 0.0
04:20 7.5 97.6 0.7 SSW 2.8 S 0.0
04:25 7.5 97.6 1.4 N 3.5 N 0.0
04:30 7.6 97.5 1.1 SW 3.5 W 0.0
04:35 7.6 97.6 4.0 WSW 5.3 WSW 0.0
04:40 7.8 97.7 2.8 WSW 4.6 WSW 0.0
04:45 7.8 97.5 1.5 SW 4.9 WSW 0.0
04:50 7.7 97.3 1.6 S 4.2 SE 0.0
04:55 7.6 97.3 2.2 SW 4.9 S 0.0
05:00 7.6 97.4 0.4 S 2.5 S 0.0
05:05 7.6 97.5 0.1 SE 2.1 ESE 0.0
05:10 7.6 97.5 0.4 ESE 2.5 SE 0.0
05:15 7.6 97.5 0.0 NNW 1.1 NNW 0.0
05:20 7.6 97.6 0.0 NNE 0.0 NNW 0.0
05:25 7.6 97.6 0.0 NNE 0.0 N 0.0
05:30 7.7 97.6 0.0 NW 1.1 NW 0.0
05:35 7.7 97.7 0.1 S 1.8 S 0.0
05:40 7.7 97.6 0.9 SSW 2.5 S 0.0
05:45 7.7 97.6 0.5 SW 2.5 SSW 0.0
05:50 7.8 97.7 2.6 S 4.6 S 0.0
05:55 7.8 97.7 0.0 NNE 0.0 W 0.0
06:00 7.8 97.7 0.0 NNE 0.0 NNE 0.0
Máxima 8.5 97.7 4.0 WSW 5.3 WSW 0.0
Mínima 7.3 97.1
Total 0.0